createdAt,value
2022-08-14T00:01:11.545Z,100299.81
2022-08-14T00:03:42.879Z,100299.09
2022-08-14T00:06:25.824Z,100292.25
2022-08-14T00:08:59.590Z,100301.19
2022-08-14T00:11:32.197Z,100299.44
2022-08-14T00:14:02.816Z,100294.06
2022-08-14T00:16:41.009Z,100295.81
2022-08-14T00:19:19.497Z,100298.84
2022-08-14T00:21:51.417Z,100303.41
2022-08-14T00:24:28.455Z,100300.19
2022-08-14T00:27:02.317Z,100303.66
2022-08-14T00:29:40.438Z,100297.16
2022-08-14T00:32:50.130Z,100291.50
2022-08-14T00:35:02.461Z,100291.00
2022-08-14T00:37:32.684Z,100287.88
2022-08-14T00:40:02.748Z,100292.50
2022-08-14T00:42:54.945Z,100289.81
2022-08-14T00:45:27.499Z,100288.94
2022-08-14T00:48:00.342Z,100257.56
2022-08-14T00:50:31.146Z,100287.31
2022-08-14T00:53:01.973Z,100283.78
2022-08-14T00:55:31.858Z,100279.69
2022-08-14T00:58:28.024Z,100280.75
2022-08-14T01:01:04.504Z,100293.19
2022-08-14T01:03:37.585Z,100285.56
2022-08-14T01:06:09.171Z,100285.44
2022-08-14T01:08:51.746Z,100292.22
2022-08-14T01:11:31.713Z,100296.50
2022-08-14T01:14:25.596Z,100296.09
2022-08-14T01:16:57.036Z,100298.09
2022-08-14T01:19:41.274Z,100294.03
2022-08-14T01:22:13.024Z,100299.47
2022-08-14T01:24:43.627Z,100297.88
2022-08-14T01:27:18.218Z,100301.31
2022-08-14T01:30:01.112Z,100297.63
2022-08-14T01:32:42.676Z,100297.44
2022-08-14T01:35:19.619Z,100291.19
2022-08-14T01:38:03.639Z,100302.44
2022-08-14T01:40:41.093Z,100291.31
2022-08-14T01:43:15.366Z,100293.09
2022-08-14T01:46:06.587Z,100294.75
2022-08-14T01:48:38.329Z,100297.44
2022-08-14T01:51:18.698Z,100300.78
2022-08-14T01:53:55.316Z,100306.06
2022-08-14T01:56:33.139Z,100297.44
2022-08-14T01:59:09.720Z,100311.97
2022-08-14T02:01:41.944Z,100308.81
2022-08-14T02:04:54.668Z,100321.75
2022-08-14T02:07:15.784Z,100318.47
2022-08-14T02:09:55.810Z,100315.19
2022-08-14T02:12:29.440Z,100308.88
2022-08-14T02:15:01.512Z,100312.16
2022-08-14T02:17:35.762Z,100320.78
2022-08-14T02:20:08.096Z,100317.22
2022-08-14T02:22:47.923Z,100322.38
2022-08-14T02:25:19.749Z,100325.84
2022-08-14T02:28:24.890Z,100324.19
2022-08-14T02:30:40.665Z,100320.38
2022-08-14T02:33:09.548Z,100332.59
2022-08-14T02:35:43.140Z,100325.75
2022-08-14T02:38:29.537Z,100331.34
2022-08-14T02:41:02.237Z,100332.28
2022-08-14T02:43:46.423Z,100336.34
2022-08-14T02:46:20.321Z,100336.03
2022-08-14T02:49:02.628Z,100330.91
2022-08-14T02:51:35.004Z,100336.75
2022-08-14T02:54:07.028Z,100331.31
2022-08-14T02:57:15.753Z,100312.56
2022-08-14T02:59:33.659Z,100329.13
2022-08-14T03:02:04.785Z,100335.97
2022-08-14T03:04:34.924Z,100334.03
2022-08-14T03:07:07.823Z,100329.41
2022-08-14T03:10:25.983Z,100340.47
2022-08-14T03:12:32.802Z,100344.69
2022-08-14T03:15:05.889Z,100345.41
2022-08-14T03:17:40.771Z,100348.59
2022-08-14T03:20:25.504Z,100334.56
2022-08-14T03:22:55.740Z,100341.34
2022-08-14T03:25:24.836Z,100340.50
2022-08-14T03:27:58.420Z,100341.41
2022-08-14T03:30:38.970Z,100343.47
2022-08-14T03:33:11.337Z,100342.44
2022-08-14T03:35:59.841Z,100337.03
2022-08-14T03:39:16.002Z,100341.13
2022-08-14T03:41:25.366Z,100337.41
2022-08-14T03:44:01.570Z,100335.69
2022-08-14T03:46:54.721Z,100335.34
2022-08-14T03:49:28.312Z,100340.16
2022-08-14T03:52:00.452Z,100342.50
2022-08-14T03:54:33.400Z,100336.19
2022-08-14T03:57:03.602Z,100337.59
2022-08-14T03:59:35.514Z,100338.97
2022-08-14T04:02:31.838Z,100332.22
2022-08-14T04:04:55.345Z,100318.47
2022-08-14T04:07:39.574Z,100333.25
2022-08-14T04:10:26.232Z,100344.91
2022-08-14T04:13:03.480Z,100334.78
2022-08-14T04:15:56.387Z,100337.63
2022-08-14T04:18:25.004Z,100328.22
2022-08-14T04:20:55.796Z,100341.09
2022-08-14T04:23:29.419Z,100334.41
2022-08-14T04:26:04.016Z,100333.44
2022-08-14T04:29:07.408Z,100337.06
2022-08-14T04:33:01.025Z,100335.72
2022-08-14T04:34:20.655Z,100334.09
2022-08-14T04:37:07.484Z,100331.97
2022-08-14T04:39:57.324Z,100336.00
2022-08-14T04:42:47.365Z,100342.38
2022-08-14T04:45:23.283Z,100334.00
2022-08-14T04:48:10.058Z,100339.81
2022-08-14T04:50:44.891Z,100334.53
2022-08-14T04:53:16.756Z,100341.28
2022-08-14T04:55:51.640Z,100321.44
2022-08-14T04:58:32.807Z,100335.38
2022-08-14T05:01:12.769Z,100334.47
2022-08-14T05:03:49.442Z,100329.97
2022-08-14T05:06:37.891Z,100331.06
2022-08-14T05:09:13.903Z,100321.78
2022-08-14T05:11:44.274Z,100329.66
2022-08-14T05:14:16.874Z,100332.88
2022-08-14T05:17:03.466Z,100335.19
2022-08-14T05:19:36.486Z,100339.38
2022-08-14T05:22:15.716Z,100334.81
2022-08-14T05:24:48.629Z,100334.03
2022-08-14T05:27:23.194Z,100320.19
2022-08-14T05:29:56.587Z,100333.97
2022-08-14T05:32:28.142Z,100321.78
2022-08-14T05:35:01.765Z,100333.53
2022-08-14T05:37:32.898Z,100321.38
2022-08-14T05:40:02.784Z,100325.78
2022-08-14T05:42:34.286Z,100329.22
2022-08-14T05:45:11.009Z,100336.81
2022-08-14T05:47:41.959Z,100328.41
2022-08-14T05:50:17.527Z,100326.38
2022-08-14T05:52:51.014Z,100327.81
2022-08-14T05:55:22.219Z,100323.47
2022-08-14T05:57:59.433Z,100326.94
2022-08-14T06:00:38.772Z,100328.66
2022-08-14T06:03:11.146Z,100320.41
2022-08-14T06:05:43.321Z,100321.09
2022-08-14T06:08:31.327Z,100322.53
2022-08-14T06:11:08.328Z,100302.88
2022-08-14T06:13:41.095Z,100321.75
2022-08-14T06:16:18.224Z,100315.47
2022-08-14T06:18:52.533Z,100337.94
2022-08-14T06:21:26.031Z,100319.66
2022-08-14T06:23:55.201Z,100312.56
2022-08-14T06:26:30.139Z,100312.66
2022-08-14T06:29:00.025Z,100315.28
2022-08-14T06:31:29.238Z,100308.31
2022-08-14T06:35:04.694Z,100314.53
2022-08-14T06:36:49.962Z,100319.84
2022-08-14T06:39:36.351Z,100312.59
2022-08-14T06:42:07.545Z,100301.28
2022-08-14T06:44:57.561Z,100315.50
2022-08-14T06:47:27.785Z,100315.63
2022-08-14T06:49:58.463Z,100298.63
2022-08-14T06:52:33.136Z,100311.88
2022-08-14T06:55:02.667Z,100316.88
2022-08-14T06:57:38.461Z,100314.16
2022-08-14T07:00:22.256Z,100307.59
2022-08-14T07:03:09.585Z,100305.63
2022-08-14T07:05:57.722Z,100301.75
2022-08-14T07:08:31.985Z,100315.72
2022-08-14T07:11:03.800Z,100297.19
2022-08-14T07:13:33.298Z,100287.56
2022-08-14T07:16:05.535Z,100314.84
2022-08-14T07:18:37.074Z,100305.09
2022-08-14T07:21:10.942Z,100308.44
2022-08-14T07:23:44.269Z,100301.97
2022-08-14T07:26:14.753Z,100290.63
2022-08-14T07:28:44.280Z,100298.56
2022-08-14T07:31:16.382Z,100299.41
2022-08-14T07:33:50.238Z,100287.09
2022-08-14T07:36:27.380Z,100305.41
2022-08-14T07:39:12.230Z,100300.34
2022-08-14T07:41:43.963Z,100297.94
2022-08-14T07:44:32.226Z,100294.16
2022-08-14T07:47:03.753Z,100297.53
2022-08-14T07:49:36.161Z,100300.91
2022-08-14T07:52:06.089Z,100295.44
2022-08-14T07:54:39.438Z,100299.50
2022-08-14T07:57:12.531Z,100289.78
2022-08-14T07:59:44.684Z,100289.88
2022-08-14T08:02:20.387Z,100281.94
2022-08-14T08:04:54.914Z,100293.47
2022-08-14T08:07:30.125Z,100300.06
2022-08-14T08:10:46.161Z,100299.22
2022-08-14T08:13:24.054Z,100298.56
2022-08-14T08:15:56.205Z,100302.28
2022-08-14T08:18:29.504Z,100289.91
2022-08-14T08:21:00.483Z,100286.16
2022-08-14T08:23:43.616Z,100277.34
2022-08-14T08:26:23.327Z,100295.19
2022-08-14T08:28:58.918Z,100290.63
2022-08-14T08:31:32.918Z,100289.47
2022-08-14T08:34:14.345Z,100291.56
2022-08-14T08:36:47.705Z,100279.91
2022-08-14T08:39:22.091Z,100288.91
2022-08-14T08:41:54.317Z,100290.44
2022-08-14T08:44:31.828Z,100288.00
2022-08-14T08:47:05.553Z,100275.19
2022-08-14T08:49:48.310Z,100271.25
2022-08-14T08:52:25.604Z,100274.16
2022-08-14T08:55:00.808Z,100274.53
2022-08-14T08:57:38.523Z,100266.78
2022-08-14T09:00:24.594Z,100280.75
2022-08-14T09:02:57.234Z,100269.34
2022-08-14T09:05:28.435Z,100275.81
2022-08-14T09:08:30.874Z,100270.00
2022-08-14T09:11:00.737Z,100266.19
2022-08-14T09:13:33.155Z,100258.56
2022-08-14T09:16:18.385Z,100253.94
2022-08-14T09:18:48.847Z,100246.63
2022-08-14T09:21:18.114Z,100266.47
2022-08-14T09:24:26.158Z,100263.19
2022-08-14T09:26:41.785Z,100257.31
2022-08-14T09:29:14.019Z,100257.56
2022-08-14T09:31:52.808Z,100260.25
2022-08-14T09:34:39.040Z,100262.59
2022-08-14T09:37:36.913Z,100258.81
2022-08-14T09:40:20.763Z,100260.19
2022-08-14T09:43:04.763Z,100264.63
2022-08-14T09:45:53.315Z,100260.81
2022-08-14T09:48:30.843Z,100261.72
2022-08-14T09:54:17.726Z,100251.44
2022-08-14T09:56:31.763Z,100255.44
2022-08-14T09:59:17.325Z,100252.28
2022-08-14T10:01:52.724Z,100270.78
2022-08-14T10:04:34.911Z,100270.88
2022-08-14T10:07:09.793Z,100265.59
2022-08-14T10:09:59.687Z,100244.66
2022-08-14T10:12:44.848Z,100259.97
2022-08-14T10:15:22.478Z,100254.84
2022-08-14T10:18:07.861Z,100260.72
2022-08-14T10:20:44.966Z,100255.88
2022-08-14T10:23:23.202Z,100262.44
2022-08-14T10:25:55.116Z,100259.22
2022-08-14T10:28:29.427Z,100264.81
2022-08-14T10:31:25.811Z,100276.88
2022-08-14T10:34:12.923Z,100269.75
2022-08-14T10:36:48.055Z,100262.06
2022-08-14T10:39:21.369Z,100255.94
2022-08-14T10:41:54.076Z,100250.69
2022-08-14T10:44:29.673Z,100250.94
2022-08-14T10:47:39.555Z,100251.38
2022-08-14T10:50:01.619Z,100243.97
2022-08-14T10:52:35.880Z,100249.38
2022-08-14T10:55:13.724Z,100243.38
2022-08-14T10:57:53.278Z,100245.00
2022-08-14T11:00:30.036Z,100244.47
2022-08-14T11:03:09.383Z,100237.19
2022-08-14T11:05:48.422Z,100238.97
2022-08-14T11:08:19.778Z,100239.03
2022-08-14T11:10:50.104Z,100247.28
2022-08-14T11:13:24.513Z,100243.31
2022-08-14T11:15:55.729Z,100243.47
2022-08-14T11:18:35.916Z,100232.63
2022-08-14T11:21:11.356Z,100214.06
2022-08-14T11:23:44.170Z,100225.31
2022-08-14T11:26:18.771Z,100236.00
2022-08-14T11:28:50.890Z,100237.28
2022-08-14T11:31:22.961Z,100232.50
2022-08-14T11:33:57.826Z,100239.53
2022-08-14T11:36:35.361Z,100223.75
2022-08-14T11:39:33.578Z,100232.94
2022-08-14T11:42:07.719Z,100232.34
2022-08-14T11:44:56.749Z,100225.28
2022-08-14T11:47:35.627Z,100220.72
2022-08-14T11:50:34.168Z,100237.03
2022-08-14T11:53:21.259Z,100233.97
2022-08-14T11:55:57.535Z,100219.91
2022-08-14T11:58:30.935Z,100212.63
2022-08-14T12:01:03.914Z,100231.94
2022-08-14T12:03:51.252Z,100225.84
2022-08-14T12:06:29.639Z,100225.31
2022-08-14T12:09:14.723Z,100216.84
2022-08-14T12:11:51.479Z,100224.31
2022-08-14T12:14:30.581Z,100212.75
2022-08-14T12:17:11.946Z,100217.50
2022-08-14T12:19:50.611Z,100219.44
2022-08-14T12:22:34.765Z,100218.41
2022-08-14T12:25:11.801Z,100212.97
2022-08-14T12:27:51.993Z,100206.84
2022-08-14T12:30:40.164Z,100205.88
2022-08-14T12:33:30.583Z,100203.66
2022-08-14T12:36:05.541Z,100206.31
2022-08-14T12:38:40.926Z,100205.09
2022-08-14T12:41:21.267Z,100203.66
2022-08-14T12:43:53.893Z,100199.00
2022-08-14T12:46:28.548Z,100198.19
2022-08-14T12:49:02.536Z,100195.38
2022-08-14T12:57:42.580Z,100166.47
2022-08-14T13:00:23.188Z,100196.59
2022-08-14T13:02:56.777Z,100187.00
2022-08-14T13:05:29.763Z,100196.72
2022-08-14T13:08:01.223Z,100191.16
2022-08-14T13:10:47.673Z,100188.66
2022-08-14T13:13:25.997Z,100194.63
2022-08-14T13:15:57.599Z,100188.97
2022-08-14T13:18:28.982Z,100194.75
2022-08-14T13:21:01.820Z,100182.31
2022-08-14T13:23:36.412Z,100194.50
2022-08-14T13:26:08.739Z,100194.63
2022-08-14T13:29:02.527Z,100193.09
2022-08-14T13:31:36.389Z,100186.50
2022-08-14T13:34:06.078Z,100173.31
2022-08-14T13:36:54.757Z,100190.72
2022-08-14T13:39:29.767Z,100188.16
2022-08-14T13:42:01.131Z,100187.63
2022-08-14T13:44:35.794Z,100173.28
2022-08-14T13:47:06.157Z,100187.53
2022-08-14T13:49:37.087Z,100169.97
2022-08-14T13:52:48.086Z,100164.22
2022-08-14T13:55:03.960Z,100172.53
2022-08-14T13:57:35.773Z,100172.91
2022-08-14T14:00:12.911Z,100168.81
2022-08-14T14:02:45.788Z,100169.69
2022-08-14T14:05:18.345Z,100171.81
2022-08-14T14:07:51.139Z,100170.38
2022-08-14T14:10:28.395Z,100169.69
2022-08-14T14:12:59.550Z,100157.72
2022-08-14T14:15:48.679Z,100168.91
2022-08-14T14:18:34.028Z,100162.66
2022-08-14T14:21:06.337Z,100159.94
2022-08-14T14:23:40.772Z,100162.91
2022-08-14T14:26:13.924Z,100159.75
2022-08-14T14:28:45.590Z,100153.47
2022-08-14T14:31:21.714Z,100159.66
2022-08-14T14:34:12.491Z,100157.84
2022-08-14T14:36:55.599Z,100154.47
2022-08-14T14:39:27.570Z,100148.16
2022-08-14T14:42:04.099Z,100140.78
2022-08-14T14:44:40.342Z,100149.59
2022-08-14T14:47:22.654Z,100148.06
2022-08-14T14:49:55.433Z,100139.72
2022-08-14T14:52:27.816Z,100140.69
2022-08-14T14:55:08.493Z,100147.44
2022-08-14T14:57:38.287Z,100140.47
2022-08-14T15:00:13.018Z,100134.03
2022-08-14T15:02:46.684Z,100140.34
2022-08-14T15:05:19.111Z,100136.34
2022-08-14T15:07:49.783Z,100128.97
2022-08-14T15:10:27.637Z,100117.25
2022-08-14T15:13:04.194Z,100137.81
2022-08-14T15:15:37.271Z,100127.66
2022-08-14T15:18:36.264Z,100133.19
2022-08-14T15:21:02.300Z,100134.06
2022-08-14T15:23:43.677Z,100127.63
2022-08-14T15:26:23.798Z,100130.28
2022-08-14T15:29:05.922Z,100133.06
2022-08-14T15:31:37.029Z,100114.06
2022-08-14T15:34:45.847Z,100135.00
2022-08-14T15:37:05.433Z,100150.59
2022-08-14T15:39:38.268Z,100136.31
2022-08-14T15:42:15.593Z,100138.94
2022-08-14T15:44:57.860Z,100136.03
2022-08-14T15:47:32.353Z,100144.84
2022-08-14T15:50:08.335Z,100142.41
2022-08-14T15:52:41.112Z,100145.44
2022-08-14T15:55:16.491Z,100133.56
2022-08-14T15:57:51.726Z,100126.19
2022-08-14T16:00:49.444Z,100144.41
2022-08-14T16:03:27.793Z,100148.25
2022-08-14T16:06:11.187Z,100146.56
2022-08-14T16:08:46.325Z,100144.88
2022-08-14T16:11:20.301Z,100147.75
2022-08-14T16:13:49.932Z,100151.50
2022-08-14T16:16:34.918Z,100154.69
2022-08-14T16:19:12.086Z,100155.41
2022-08-14T16:22:01.492Z,100145.84
2022-08-14T16:27:38.697Z,100139.38
2022-08-14T16:30:24.519Z,100149.47
2022-08-14T16:32:56.391Z,100150.34
2022-08-14T16:35:41.940Z,100148.78
2022-08-14T16:38:45.758Z,100151.34
2022-08-14T16:40:24.219Z,100141.22
2022-08-14T16:41:22.847Z,100149.28
2022-08-14T16:43:59.139Z,100157.31
2022-08-14T16:46:35.411Z,100153.09
2022-08-14T16:49:07.561Z,100160.22
2022-08-14T16:51:38.755Z,100148.66
2022-08-14T16:54:34.027Z,100170.47
2022-08-14T16:57:19.879Z,100157.09
2022-08-14T16:59:52.347Z,100168.66
2022-08-14T17:02:36.452Z,100166.00
2022-08-14T17:05:19.777Z,100172.25
2022-08-14T17:08:42.549Z,100161.94
2022-08-14T17:11:11.177Z,100178.47
2022-08-14T17:13:59.169Z,100178.22
2022-08-14T17:16:37.359Z,100178.16
2022-08-14T17:19:14.123Z,100187.91
2022-08-14T17:21:47.966Z,100187.25
2022-08-14T17:24:56.308Z,100190.22
2022-08-14T17:30:32.404Z,100200.09
2022-08-14T17:33:03.269Z,100205.22
2022-08-14T17:35:57.675Z,100205.81
2022-08-14T17:38:38.354Z,100199.94
2022-08-14T17:41:32.934Z,100201.25
2022-08-14T17:44:21.409Z,100206.63
2022-08-14T17:46:55.162Z,100192.78
2022-08-14T17:49:31.938Z,100198.25
2022-08-14T17:52:16.677Z,100211.47
2022-08-14T17:54:52.753Z,100200.53
2022-08-14T17:57:30.589Z,100202.03
2022-08-14T18:00:15.044Z,100207.13
2022-08-14T18:02:51.269Z,100210.44
2022-08-14T18:05:23.695Z,100187.84
2022-08-14T18:08:34.474Z,100209.84
2022-08-14T18:11:08.239Z,100175.75
2022-08-14T18:13:51.890Z,100209.91
2022-08-14T18:16:24.242Z,100218.81
2022-08-14T18:18:54.085Z,100210.09
2022-08-14T18:21:42.736Z,100218.13
2022-08-14T18:24:28.258Z,100207.06
2022-08-14T18:27:08.958Z,100208.63
2022-08-14T18:29:44.400Z,100206.84
2022-08-14T18:32:47.276Z,100208.88
2022-08-14T18:35:45.846Z,100206.44
2022-08-14T18:38:46.022Z,100205.31
2022-08-14T18:41:37.204Z,100209.44
2022-08-14T18:44:10.031Z,100202.72
2022-08-14T18:47:14.951Z,100210.63
2022-08-14T18:50:19.131Z,100205.19
2022-08-14T18:53:04.880Z,100206.31
2022-08-14T18:55:53.235Z,100206.22
2022-08-14T18:58:33.968Z,100203.53
2022-08-14T19:01:06.315Z,100220.56
2022-08-14T19:04:01.398Z,100216.41
2022-08-14T19:06:55.859Z,100216.06
2022-08-14T19:09:54.527Z,100215.41
2022-08-14T19:12:59.901Z,100225.25
2022-08-14T19:15:34.768Z,100219.09
2022-08-14T19:18:26.521Z,100201.44
2022-08-14T19:21:00.468Z,100219.19
2022-08-14T19:23:42.669Z,100226.25
2022-08-14T19:26:37.007Z,100197.25
2022-08-14T19:29:26.356Z,100214.19
2022-08-14T19:32:07.549Z,100214.94
2022-08-14T19:34:52.212Z,100219.81
2022-08-14T19:37:48.297Z,100222.19
2022-08-14T19:40:34.389Z,100234.44
2022-08-14T19:43:06.537Z,100231.00
2022-08-14T19:45:36.388Z,100226.53
2022-08-14T19:48:14.348Z,100228.19
2022-08-14T19:50:47.314Z,100226.53
2022-08-14T19:53:18.416Z,100221.66
2022-08-14T19:56:01.615Z,100228.38
2022-08-14T19:58:54.573Z,100230.19
2022-08-14T20:01:37.567Z,100230.44
2022-08-14T20:04:47.339Z,100239.28
2022-08-14T20:07:01.172Z,100226.09
2022-08-14T20:11:12.983Z,100236.63
2022-08-14T20:12:35.392Z,100230.75
2022-08-14T20:15:15.532Z,100227.53
2022-08-14T20:17:53.164Z,100239.00
2022-08-14T20:20:31.484Z,100238.25
2022-08-14T20:23:11.445Z,100233.16
2022-08-14T20:25:45.189Z,100238.41
2022-08-14T20:28:35.702Z,100233.16
2022-08-14T20:31:17.832Z,100238.50
2022-08-14T20:34:06.147Z,100231.69
2022-08-14T20:36:41.128Z,100231.00
2022-08-14T20:39:15.309Z,100229.47
2022-08-14T20:41:51.111Z,100218.50
2022-08-14T20:44:38.850Z,100237.38
2022-08-14T20:47:08.249Z,100229.19
2022-08-14T20:49:37.544Z,100203.06
2022-08-14T20:52:19.180Z,100237.94
2022-08-14T20:54:51.848Z,100239.03
2022-08-14T20:57:21.838Z,100238.38
2022-08-14T20:59:57.432Z,100224.91
2022-08-14T21:02:46.743Z,100238.78
2022-08-14T21:05:23.569Z,100241.78
2022-08-14T21:08:09.910Z,100250.00
2022-08-14T21:10:54.958Z,100248.38
2022-08-14T21:14:19.469Z,100254.66
2022-08-14T21:16:33.662Z,100237.56
2022-08-14T21:19:08.585Z,100227.72
2022-08-14T21:21:42.468Z,100240.56
2022-08-14T21:24:39.679Z,100244.31
2022-08-14T21:27:12.771Z,100243.69
2022-08-14T21:29:53.456Z,100250.66
2022-08-14T21:32:50.563Z,100259.63
2022-08-14T21:35:29.456Z,100261.63
2022-08-14T21:37:58.933Z,100253.13
2022-08-14T21:40:42.081Z,100245.47
2022-08-14T21:43:19.320Z,100254.19
2022-08-14T21:45:53.461Z,100255.13
2022-08-14T21:48:26.292Z,100238.88
2022-08-14T21:51:53.361Z,100256.84
2022-08-14T21:53:58.080Z,100254.19
2022-08-14T21:56:38.961Z,100251.34
2022-08-14T21:59:17.736Z,100254.03
2022-08-14T22:02:00.171Z,100255.69
2022-08-14T22:04:40.211Z,100255.00
2022-08-14T22:07:19.408Z,100251.25
2022-08-14T22:09:58.846Z,100242.75
2022-08-14T22:12:47.190Z,100245.31
2022-08-14T22:15:22.538Z,100247.16
2022-08-14T22:17:54.444Z,100254.44
2022-08-14T22:20:28.045Z,100250.47
2022-08-14T22:23:02.962Z,100247.09
2022-08-14T22:25:34.574Z,100249.53
2022-08-14T22:28:16.819Z,100247.09
2022-08-14T22:30:47.247Z,100249.00
2022-08-14T22:33:26.429Z,100260.53
2022-08-14T22:36:00.861Z,100252.63
2022-08-14T22:38:36.159Z,100253.66
2022-08-14T22:41:26.178Z,100259.84
2022-08-14T22:44:01.534Z,100253.50
2022-08-14T22:46:31.015Z,100255.06
2022-08-14T22:49:15.433Z,100252.38
2022-08-14T22:51:52.506Z,100253.56
2022-08-14T22:54:51.277Z,100253.28
2022-08-14T22:57:15.718Z,100236.63
2022-08-14T22:59:44.969Z,100249.31
2022-08-14T23:02:22.148Z,100244.34
2022-08-14T23:05:02.894Z,100255.56
2022-08-14T23:09:00.056Z,100245.97
2022-08-14T23:10:32.018Z,100252.25
2022-08-14T23:13:05.490Z,100239.75
2022-08-14T23:15:37.603Z,100246.41
2022-08-14T23:18:13.234Z,100256.63
2022-08-14T23:20:47.766Z,100261.91
2022-08-14T23:23:22.351Z,100251.75
2022-08-14T23:26:00.594Z,100263.91
2022-08-14T23:28:56.743Z,100258.06
2022-08-14T23:31:36.063Z,100263.34
2022-08-14T23:34:09.050Z,100259.94
2022-08-14T23:36:54.040Z,100253.25
2022-08-14T23:39:30.082Z,100251.47
2022-08-14T23:42:08.435Z,100261.69
2022-08-14T23:44:39.171Z,100252.19
2022-08-14T23:47:26.023Z,100256.59
2022-08-14T23:50:00.694Z,100248.38
2022-08-14T23:52:50.499Z,100241.03
2022-08-14T23:55:29.389Z,100255.53
2022-08-14T23:58:01.225Z,100264.63
